Time;durP1;ratioP1;P1;durP2;ratioP2;P2;SDS_P1;SDS_P2;PMS_P1;PMS_P2;Temp;Humidity;BMP_temperature;BMP_pressure;BME280_temperature;BME280_humidity;BME280_pressure;Samples;Min_cycle;Max_cycle;Signal;HPM_P1;HPM_P2
2021/03/20 00:00:49;;;;;;;25.47;14.87;;;;;;;1.33;77.15;99538.55;1744735;79;21137;-62
2021/03/20 00:03:17;;;;;;;28.33;15.90;;;;;;;1.33;77.16;99535.45;1745938;79;21152;-62
2021/03/20 00:05:45;;;;;;;26.93;16.33;;;;;;;1.33;77.11;99535.45;1740355;79;21021;-62
2021/03/20 00:08:12;;;;;;;25.73;15.17;;;;;;;1.32;77.10;99536.34;1742291;79;21191;-62
2021/03/20 00:10:41;;;;;;;25.40;15.23;;;;;;;1.30;77.15;99534.16;1743528;79;21269;-62
2021/03/20 00:13:09;;;;;;;23.00;14.97;;;;;;;1.29;77.29;99532.84;1740259;79;21495;-62
2021/03/20 00:15:38;;;;;;;22.43;14.73;;;;;;;1.29;77.21;99529.75;1743975;79;21148;-62
2021/03/20 00:18:05;;;;;;;26.97;14.70;;;;;;;1.26;77.16;99532.91;1742784;79;21155;-61
2021/03/20 00:20:36;;;;;;;25.27;14.57;;;;;;;1.21;77.14;99538.70;1744386;79;21171;-62
2021/03/20 00:23:04;;;;;;;22.77;14.90;;;;;;;1.14;77.19;99533.95;1744458;79;21131;-61
2021/03/20 00:25:33;;;;;;;19.47;13.77;;;;;;;1.08;77.34;99532.27;1741999;79;21143;-61
2021/03/20 00:28:00;;;;;;;24.37;14.47;;;;;;;1.04;77.37;99538.50;1739989;79;21155;-61
2021/03/20 00:30:28;;;;;;;23.80;12.97;;;;;;;1.02;77.40;99542.93;1742578;79;21114;-61
2021/03/20 00:32:55;;;;;;;28.43;16.70;;;;;;;0.99;77.37;99540.79;1741698;79;21104;-61
2021/03/20 00:35:23;;;;;;;32.97;18.53;;;;;;;0.95;77.38;99547.01;1740383;79;21119;-61
2021/03/20 00:37:51;;;;;;;31.10;17.07;;;;;;;0.92;77.44;99540.45;1743178;79;21732;-61
2021/03/20 00:40:22;;;;;;;31.77;18.80;;;;;;;0.91;77.49;99544.87;1750725;79;21139;-61
2021/03/20 00:42:50;;;;;;;33.67;18.73;;;;;;;0.91;77.43;99546.19;1746018;79;21159;-60
2021/03/20 00:45:18;;;;;;;30.93;18.97;;;;;;;0.89;77.49;99541.80;1693982;82;21133;-61
2021/03/20 00:47:45;;;;;;;30.57;17.10;;;;;;;0.88;77.52;99540.04;1745658;79;21644;-60
2021/03/20 00:50:14;;;;;;;26.27;16.07;;;;;;;0.90;77.53;99539.14;1746572;79;21195;-60
2021/03/20 00:52:41;;;;;;;28.53;15.83;;;;;;;0.92;77.54;99538.67;1747509;79;21771;-60
2021/03/20 00:55:10;;;;;;;28.40;16.00;;;;;;;0.94;77.49;99537.30;1747824;79;21143;-61
2021/03/20 00:57:38;;;;;;;29.43;18.13;;;;;;;0.95;77.44;99535.96;1746383;79;21103;-60
2021/03/20 01:00:13;;;;;;;29.67;18.03;;;;;;;0.94;77.46;99535.53;1746120;79;21167;-60
2021/03/20 01:02:41;;;;;;;33.77;19.50;;;;;;;0.92;77.48;99532.05;1745116;79;21582;-60
2021/03/20 01:05:09;;;;;;;33.70;18.70;;;;;;;0.92;77.45;99530.73;1745901;79;21135;-60
2021/03/20 01:07:37;;;;;;;26.50;16.83;;;;;;;0.91;77.39;99535.59;1747096;79;21495;-60
2021/03/20 01:10:08;;;;;;;28.47;16.43;;;;;;;0.86;77.38;99536.52;1748003;79;21128;-60
2021/03/20 01:12:35;;;;;;;31.57;17.50;;;;;;;0.82;77.53;99533.05;1746844;79;21199;-60
2021/03/20 01:15:05;;;;;;;36.33;20.47;;;;;;;0.81;77.51;99534.39;1703297;81;23009;-60
2021/03/20 01:17:32;;;;;;;34.63;19.07;;;;;;;0.79;77.57;99537.05;1684128;82;21375;-60
2021/03/20 01:20:00;;;;;;;30.93;20.63;;;;;;;0.80;77.67;99532.19;1744330;79;21127;-60
2021/03/20 01:22:27;;;;;;;31.50;19.33;;;;;;;0.83;77.63;99531.28;1688991;82;21591;-60
2021/03/20 01:24:55;;;;;;;30.27;17.27;;;;;;;0.82;77.63;99532.17;1747166;79;21127;-60
2021/03/20 01:27:22;;;;;;;28.33;17.37;;;;;;;0.83;77.64;99537.46;1745866;79;21763;-60
2021/03/20 01:29:50;;;;;;;32.90;17.23;;;;;;;0.81;77.63;99535.27;1705586;81;21220;-60
2021/03/20 01:34:53;;;;;;;28.90;17.77;;;;;;;0.80;77.74;99533.96;1820899;75;26793;-59
2021/03/20 01:37:21;;;;;;;25.90;15.73;;;;;;;0.73;77.73;99528.75;1787865;77;21392;-59
2021/03/20 01:39:49;;;;;;;27.47;17.13;;;;;;;0.73;77.77;99531.84;1793286;77;21040;-59
2021/03/20 01:42:17;;;;;;;30.63;17.17;;;;;;;0.72;77.78;99529.64;1782823;77;21032;-59
2021/03/20 01:44:48;;;;;;;31.40;17.43;;;;;;;0.72;77.83;99531.41;1775275;78;21489;-59
2021/03/20 01:47:15;;;;;;;29.83;17.70;;;;;;;0.72;77.82;99534.06;1770141;78;22530;-58
2021/03/20 01:49:45;;;;;;;34.40;20.17;;;;;;;0.73;77.83;99535.37;1777039;78;20976;-58
2021/03/20 01:52:28;;;;;;;36.37;20.97;;;;;;;0.73;77.80;99538.47;1779257;78;21446;-58
2021/03/20 01:55:13;;;;;;;37.60;21.10;;;;;;;0.73;77.71;99539.34;1779604;78;21020;-58
2021/03/20 01:57:47;;;;;;;37.63;20.97;;;;;;;0.72;77.65;99539.36;1779998;78;21127;-58
2021/03/20 02:00:35;;;;;;;34.67;20.33;;;;;;;0.70;77.55;99539.81;1776010;78;21201;-58
2021/03/20 02:03:07;;;;;;;34.67;19.27;;;;;;;0.70;77.45;99543.79;1776397;78;21209;-58
2021/03/20 02:05:34;;;;;;;40.17;20.47;;;;;;;0.70;77.45;99551.73;1774449;78;21551;-59
2021/03/20 02:08:03;;;;;;;33.57;20.33;;;;;;;0.69;77.38;99556.16;1772209;78;21214;-59
2021/03/20 02:10:33;;;;;;;37.93;20.57;;;;;;;0.70;77.28;99559.69;1783264;78;21103;-59
2021/03/20 02:13:09;;;;;;;35.67;19.60;;;;;;;0.69;77.16;99561.45;1742703;78;21242;-59
2021/03/20 02:15:44;;;;;;;35.57;19.17;;;;;;;0.70;77.06;99557.91;1776491;78;21664;-59
2021/03/20 02:18:36;;;;;;;30.43;18.05;;;;;;;0.66;76.97;99561.52;1776868;78;26685;-58
2021/03/20 02:21:21;;;;;;;30.93;17.10;;;;;;;0.64;77.04;99567.27;1778242;78;21198;-58
2021/03/20 02:24:32;;;;;;;34.57;19.17;;;;;;;0.63;76.91;99561.98;1777696;78;21141;-58
2021/03/20 02:27:51;;;;;;;33.57;17.63;;;;;;;0.63;76.88;99564.63;1778143;78;21190;-58
2021/03/20 02:31:09;;;;;;;34.83;17.70;;;;;;;0.63;76.94;99565.95;1774926;78;21174;-58
2021/03/20 02:34:05;;;;;;;31.27;16.57;;;;;;;0.63;76.92;99573.45;1737694;78;21398;-58
2021/03/20 02:36:58;;;;;;;29.40;15.77;;;;;;;0.66;76.90;99575.20;1774115;78;22104;-58
2021/03/20 02:39:48;;;;;;;29.17;15.97;;;;;;;0.69;76.77;99571.17;1775310;78;21222;-58
2021/03/20 02:42:42;;;;;;;25.03;15.67;;;;;;;0.70;76.72;99568.51;1776348;78;21169;-58
2021/03/20 02:45:37;;;;;;;31.53;16.23;;;;;;;0.75;76.61;99567.16;1863738;75;26933;-59
2021/03/20 02:48:28;;;;;;;26.03;14.53;;;;;;;0.70;76.51;99571.16;1779181;78;21177;-58
2021/03/20 02:51:32;;;;;;;25.77;13.73;;;;;;;0.70;76.52;99572.93;1805116;78;21359;-58
2021/03/20 02:54:08;;;;;;;21.83;12.50;;;;;;;0.66;76.41;99569.45;1803473;78;21182;-59
2021/03/20 02:56:44;;;;;;;20.87;12.60;;;;;;;0.62;76.44;99580.09;1783846;79;21178;-59
2021/03/20 02:59:12;;;;;;;22.00;11.23;;;;;;;0.58;76.49;99575.73;1745565;79;22422;-59
2021/03/20 03:01:43;;;;;;;18.00;10.83;;;;;;;0.56;76.50;99581.05;1757802;79;21218;-58
2021/03/20 03:04:13;;;;;;;19.20;11.07;;;;;;;0.51;76.51;99581.52;1788015;79;21383;-58
2021/03/20 03:06:58;;;;;;;15.70;10.03;;;;;;;0.48;76.57;99582.90;1755709;79;21186;-58
2021/03/20 03:09:42;;;;;;;18.55;10.50;;;;;;;0.48;76.59;99589.52;1786259;79;21190;-57
2021/03/20 03:12:20;;;;;;;15.70;8.77;;;;;;;0.46;76.71;99583.80;1787036;79;21198;-58
2021/03/20 03:15:07;;;;;;;17.17;8.80;;;;;;;0.42;76.72;99582.97;1783572;79;21213;-57
2021/03/20 03:17:35;;;;;;;14.15;7.67;;;;;;;0.38;76.75;99583.88;1786477;79;24207;-58
2021/03/20 03:20:11;;;;;;;13.83;7.33;;;;;;;0.36;76.89;99583.01;1787956;78;21130;-57
2021/03/20 03:23:08;;;;;;;13.50;6.90;;;;;;;0.39;76.92;99592.25;1805865;77;21095;-58
2021/03/20 03:25:37;;;;;;;10.77;6.60;;;;;;;0.38;76.95;99591.38;1777215;79;21135;-58
2021/03/20 03:28:06;;;;;;;15.10;7.60;;;;;;;0.39;76.99;99597.55;1778274;78;21119;-58
2021/03/20 03:30:34;;;;;;;15.33;6.67;;;;;;;0.40;76.99;99598.43;1757774;79;22915;-58
2021/03/20 03:33:07;;;;;;;9.80;6.73;;;;;;;0.38;76.99;99595.80;1788565;79;21146;-58
2021/03/20 03:35:37;;;;;;;9.67;6.07;;;;;;;0.37;77.04;99591.38;1807962;78;21126;-58
2021/03/20 03:38:29;;;;;;;10.80;6.17;;;;;;;0.35;77.15;99601.98;1776922;78;21125;-57
2021/03/20 03:41:30;;;;;;;11.20;6.70;;;;;;;0.36;77.21;99600.22;1806714;78;21092;-58
2021/03/20 03:43:57;;;;;;;10.83;5.80;;;;;;;0.36;77.25;99604.19;1770406;78;21812;-58
2021/03/20 03:46:28;;;;;;;9.20;6.73;;;;;;;0.31;77.25;99598.08;1727139;81;21178;-58
2021/03/20 03:48:58;;;;;;;10.70;5.50;;;;;;;0.27;77.39;99606.92;1726853;81;21522;-58
2021/03/20 03:51:26;;;;;;;9.07;5.60;;;;;;;0.24;77.63;99605.20;1727192;81;21463;-58
2021/03/20 03:53:54;;;;;;;12.53;6.17;;;;;;;0.21;77.74;99601.69;1726511;81;21119;-58
2021/03/20 03:57:01;;;;;;;9.40;6.23;;;;;;;0.18;77.89;99601.27;1728122;81;21204;-58
2021/03/20 03:59:46;;;;;;;10.50;5.77;;;;;;;0.18;78.03;99605.23;1724609;81;21223;-59
2021/03/20 04:02:45;;;;;;;10.45;5.97;;;;;;;0.18;78.12;99607.00;1721986;81;21233;-59
2021/03/20 04:05:27;;;;;;;12.20;5.80;;;;;;;0.16;78.16;99608.37;1725556;81;21252;-58
2021/03/20 04:08:17;;;;;;;9.23;5.67;;;;;;;0.15;78.24;99611.02;1722695;81;21192;-58
2021/03/20 04:10:52;;;;;;;10.80;5.57;;;;;;;0.12;78.39;99608.39;1715785;81;21296;-58
2021/03/20 04:13:49;;;;;;;8.83;5.20;;;;;;;0.09;78.45;99618.55;1725818;81;21114;-57
2021/03/20 04:16:24;;;;;;;8.43;5.57;;;;;;;0.06;78.58;99615.95;1722748;81;21557;-58
2021/03/20 04:19:21;;;;;;;8.10;5.12;;;;;;;0.05;78.70;99615.95;1727316;81;21124;-58
2021/03/20 04:22:11;;;;;;;8.87;4.60;;;;;;;0.03;78.79;99617.73;1720629;81;22051;-59
2021/03/20 04:24:58;;;;;;;8.13;4.77;;;;;;;0.04;78.87;99620.81;1715431;81;21621;-58
2021/03/20 04:27:32;;;;;;;11.00;5.03;;;;;;;0.07;79.04;99622.12;1723884;81;21475;-58
2021/03/20 04:30:13;;;;;;;6.47;4.03;;;;;;;0.08;79.05;99618.59;1726339;81;21186;-58
2021/03/20 04:33:03;;;;;;;5.90;3.60;;;;;;;0.11;79.14;99622.51;1726768;81;21104;-59
2021/03/20 04:35:41;;;;;;;8.77;4.47;;;;;;;0.12;79.18;99621.63;1720768;81;21223;-58
2021/03/20 04:38:09;;;;;;;7.47;3.37;;;;;;;0.10;79.15;99628.25;1723417;81;21878;-57
2021/03/20 04:40:41;;;;;;;4.83;3.57;;;;;;;0.10;79.19;99627.37;1721762;81;21207;-58
2021/03/20 04:43:11;;;;;;;7.00;3.87;;;;;;;0.10;79.32;99628.69;1722383;81;21234;-57
2021/03/20 04:45:51;;;;;;;7.80;3.47;;;;;;;0.12;79.40;99629.56;1750047;79;21154;-57
2021/03/20 04:48:30;;;;;;;7.60;3.67;;;;;;;0.16;79.41;99628.22;1753956;79;21154;-58
2021/03/20 04:51:09;;;;;;;10.07;4.57;;;;;;;0.19;79.33;99632.14;1757196;79;21382;-58
2021/03/20 04:53:36;;;;;;;7.83;5.07;;;;;;;0.23;79.42;99625.06;1754895;79;21131;-57
2021/03/20 04:56:06;;;;;;;9.77;4.23;;;;;;;0.27;79.39;99625.01;1754682;79;21453;-58
2021/03/20 04:58:49;;;;;;;6.90;4.30;;;;;;;0.32;79.34;99625.87;1754070;79;21656;-57
2021/03/20 05:01:25;;;;;;;8.40;3.77;;;;;;;0.38;79.22;99632.42;1753525;79;21669;-58
2021/03/20 05:04:08;;;;;;;7.27;4.37;;;;;;;0.46;79.17;99636.76;1754145;79;21821;-58
2021/03/20 05:06:37;;;;;;;7.73;3.57;;;;;;;0.50;79.03;99638.06;1750028;79;21474;-57
2021/03/20 05:09:06;;;;;;;5.40;3.77;;;;;;;0.51;78.95;99639.78;1752562;79;22822;-59
2021/03/20 05:11:56;;;;;;;6.77;3.07;;;;;;;0.54;78.85;99643.73;1753247;79;21226;-57
2021/03/20 05:14:38;;;;;;;6.43;3.20;;;;;;;0.55;78.76;99643.30;1754845;79;21661;-57
2021/03/20 05:17:12;;;;;;;4.90;3.27;;;;;;;0.58;78.64;99645.48;1754016;79;21425;-56
2021/03/20 05:19:39;;;;;;;4.90;2.47;;;;;;;0.63;78.61;99650.27;1726981;79;21216;-57
2021/03/20 05:22:06;;;;;;;5.43;3.03;;;;;;;0.66;78.49;99650.25;1760755;79;21123;-57
2021/03/20 05:24:36;;;;;;;4.30;2.73;;;;;;;0.65;78.36;99648.94;1758231;79;21207;-57
2021/03/20 05:27:07;;;;;;;5.97;2.80;;;;;;;0.65;78.12;99656.44;1756698;79;21170;-57
2021/03/20 05:29:34;;;;;;;7.53;4.13;;;;;;;0.62;77.77;99655.14;1758976;79;21501;-57
2021/03/20 05:32:04;;;;;;;7.53;3.50;;;;;;;0.56;77.62;99659.17;1756096;79;21199;-57
2021/03/20 05:34:39;;;;;;;5.93;3.40;;;;;;;0.52;77.53;99659.20;1757235;79;21577;-59
2021/03/20 05:37:07;;;;;;;5.87;2.35;;;;;;;0.50;77.41;99661.02;1759892;79;21536;-59
2021/03/20 05:39:35;;;;;;;5.37;2.90;;;;;;;0.47;77.12;99665.87;1758163;79;21215;-58
2021/03/20 05:42:19;;;;;;;4.47;2.50;;;;;;;0.44;77.04;99671.64;1751752;79;22713;-59
2021/03/20 05:45:14;;;;;;;4.17;1.82;;;;;;;0.47;76.97;99676.48;1708672;80;25066;-57
2021/03/20 05:48:20;;;;;;;4.50;2.33;;;;;;;0.46;76.62;99678.69;1747589;80;21605;-58
2021/03/20 05:51:23;;;;;;;5.12;2.30;;;;;;;0.43;76.35;99678.70;1765315;79;21281;-58
2021/03/20 05:54:07;;;;;;;6.53;2.40;;;;;;;0.46;76.33;99685.31;1783594;78;21181;-57
2021/03/20 05:56:43;;;;;;;4.67;2.23;;;;;;;0.46;75.98;99681.33;1783769;78;21552;-57
2021/03/20 05:59:24;;;;;;;3.60;1.70;;;;;;;0.48;75.90;99682.66;1790145;78;21131;-56
2021/03/20 06:02:16;;;;;;;3.67;1.60;;;;;;;0.51;75.93;99683.96;1744930;80;21194;-57
2021/03/20 06:05:15;;;;;;;5.33;1.30;;;;;;;0.54;75.53;99683.91;1785190;78;21202;-58
2021/03/20 06:08:25;;;;;;;2.67;1.57;;;;;;;0.56;75.37;99689.64;1720650;80;21209;-58
2021/03/20 06:10:58;;;;;;;6.23;1.50;;;;;;;0.57;75.00;99686.55;1775704;79;21550;-60
2021/03/20 06:13:52;;;;;;;4.97;1.87;;;;;;;0.57;74.92;99689.19;1789661;78;21125;-60
2021/03/20 06:16:25;;;;;;;3.83;1.75;;;;;;;0.56;74.67;99688.31;1789316;78;21126;-57
2021/03/20 06:19:25;;;;;;;3.67;1.33;;;;;;;0.60;74.52;99694.44;1788940;78;21134;-58
2021/03/20 06:22:03;;;;;;;4.93;1.53;;;;;;;0.66;74.46;99693.97;1788298;78;21138;-58
2021/03/20 06:24:57;;;;;;;3.43;1.80;;;;;;;0.73;74.09;99689.48;1786885;78;23032;-57
2021/03/20 06:27:39;;;;;;;3.97;1.40;;;;;;;0.79;73.68;99694.70;1788561;78;21193;-58
2021/03/20 06:30:34;;;;;;;4.03;1.60;;;;;;;0.80;73.34;99687.64;1790753;78;20964;-59
2021/03/20 06:33:30;;;;;;;2.90;1.40;;;;;;;0.85;73.51;99690.66;1787640;78;21112;-59
2021/03/20 06:36:09;;;;;;;2.93;1.30;;;;;;;0.94;73.27;99697.64;1787750;78;21131;-59
2021/03/20 06:38:41;;;;;;;3.27;1.57;;;;;;;1.03;73.09;99692.24;1789556;78;21596;-60
2021/03/20 06:41:22;;;;;;;5.27;1.60;;;;;;;1.12;72.85;99690.38;1786573;78;21111;-60
2021/03/20 06:43:59;;;;;;;4.30;1.57;;;;;;;1.18;72.26;99698.73;1786298;78;21131;-60
2021/03/20 06:46:30;;;;;;;4.22;1.57;;;;;;;1.23;72.02;99701.31;1783967;78;21103;-62
2021/03/20 06:49:00;;;;;;;8.83;1.40;;;;;;;1.27;71.58;99697.30;1781151;78;21159;-63
2021/03/20 06:51:30;;;;;;;5.33;1.73;;;;;;;1.31;71.27;99702.98;1779680;78;21397;-63
2021/03/20 06:54:00;;;;;;;3.70;1.43;;;;;;;1.40;71.23;99705.52;1781961;78;21215;-64
2021/03/20 06:56:30;;;;;;;3.30;1.50;;;;;;;1.49;70.97;99699.23;1755238;80;21129;-63
2021/03/20 06:58:57;;;;;;;3.30;1.50;;;;;;;1.61;70.90;99698.20;1755515;78;21220;-63
2021/03/20 07:01:41;;;;;;;4.17;1.80;;;;;;;1.70;70.00;99702.06;1783897;79;21198;-67
2021/03/20 07:04:20;;;;;;;3.83;1.73;;;;;;;1.75;69.52;99717.02;1785462;78;21735;-62
2021/03/20 07:07:05;;;;;;;5.40;1.97;;;;;;;1.75;68.85;99713.03;1780321;78;21207;-63
2021/03/20 07:09:33;;;;;;;6.40;2.40;;;;;;;1.76;69.03;99712.14;1780493;78;21206;-62
2021/03/20 07:12:18;;;;;;;5.27;2.17;;;;;;;1.84;68.31;99716.02;1778418;78;21716;-64
2021/03/20 07:14:55;;;;;;;4.53;1.70;;;;;;;1.85;68.37;99713.79;1780114;78;21168;-62
2021/03/20 07:17:30;;;;;;;4.77;2.10;;;;;;;1.90;68.32;99719.91;1782356;78;21665;-64
2021/03/20 07:20:09;;;;;;;6.10;2.33;;;;;;;1.96;68.37;99717.16;1779932;78;21208;-63
2021/03/20 07:22:43;;;;;;;4.70;1.83;;;;;;;2.03;68.17;99728.59;1735243;80;21288;-63
2021/03/20 07:25:32;;;;;;;5.35;1.90;;;;;;;2.10;67.68;99724.94;1737114;80;21186;-62
2021/03/20 07:28:10;;;;;;;4.00;1.53;;;;;;;2.09;67.61;99725.39;1781150;78;21660;-64
2021/03/20 07:31:09;;;;;;;5.07;2.10;;;;;;;2.14;67.57;99728.84;1781365;78;21416;-63
2021/03/20 07:33:41;;;;;;;5.27;2.17;;;;;;;2.24;67.75;99731.80;1784576;78;21198;-62
2021/03/20 07:36:23;;;;;;;4.57;2.07;;;;;;;2.36;67.21;99734.72;1779621;78;21176;-61
2021/03/20 07:39:40;;;;;;;4.43;2.40;;;;;;;2.45;66.84;99731.92;1864214;75;26674;-63
2021/03/20 07:42:25;;;;;;;3.25;1.70;;;;;;;2.42;66.66;99736.39;1833670;76;22119;-62
2021/03/20 07:45:09;;;;;;;4.05;1.70;;;;;;;2.48;66.75;99737.17;1821941;77;23077;-62
2021/03/20 07:47:38;;;;;;;;;;;;;;;2.55;66.60;99741.96;1755421;80;21219;-62
2021/03/20 07:50:26;;;;;;;3.13;1.30;;;;;;;2.64;66.41;99743.11;1750032;80;20193;-63
2021/03/20 07:53:04;;;;;;;4.40;2.13;;;;;;;2.70;66.75;99741.70;1758811;79;20937;-62
2021/03/20 07:56:02;;;;;;;3.73;1.97;;;;;;;2.78;65.72;99742.45;1782587;79;21557;-62
2021/03/20 07:58:41;;;;;;;4.23;1.30;;;;;;;2.83;65.55;99746.34;1765238;79;21279;-62
2021/03/20 08:01:24;;;;;;;3.50;1.20;;;;;;;2.89;64.76;99737.80;1738366;79;21405;-62
2021/03/20 08:03:58;;;;;;;1.30;0.77;;;;;;;2.92;64.21;99743.08;1761563;79;21169;-65
2021/03/20 08:06:47;;;;;;;3.35;1.20;;;;;;;2.94;61.99;99742.61;1762170;79;21222;-64
2021/03/20 08:09:23;;;;;;;1.77;0.97;;;;;;;2.89;61.79;99748.92;1760241;79;21150;-62
2021/03/20 08:12:21;;;;;;;2.03;1.27;;;;;;;2.80;61.58;99743.76;1763998;79;21389;-62
2021/03/20 08:14:51;;;;;;;3.23;0.90;;;;;;;2.80;61.52;99743.76;1725364;80;21175;-63
2021/03/20 08:17:20;;;;;;;1.90;0.90;;;;;;;2.84;61.41;99747.66;1719610;81;21174;-63
2021/03/20 08:19:47;;;;;;;2.43;1.33;;;;;;;2.92;61.41;99744.86;1723984;81;21158;-64
2021/03/20 08:22:36;;;;;;;0.80;0.60;;;;;;;2.96;61.18;99750.11;1754573;79;21190;-63
2021/03/20 08:25:29;;;;;;;1.50;0.80;;;;;;;2.93;59.10;99757.25;1757187;79;21691;-64
2021/03/20 08:28:31;;;;;;;1.70;1.23;;;;;;;2.80;59.51;99756.60;1753254;79;21216;-63
2021/03/20 08:31:16;;;;;;;2.43;1.20;;;;;;;2.71;60.32;99755.88;1753925;79;21684;-63
2021/03/20 08:34:07;;;;;;;2.05;1.00;;;;;;;2.75;60.48;99754.91;1722858;81;21221;-63
2021/03/20 08:37:06;;;;;;;2.03;0.80;;;;;;;2.82;60.38;99757.42;1762140;79;21214;-60
2021/03/20 08:40:19;;;;;;;1.97;1.00;;;;;;;2.90;60.27;99753.30;1767191;79;21231;-65
2021/03/20 08:43:39;;;;;;;2.27;0.90;;;;;;;2.99;60.43;99750.48;1736254;79;21816;-63
2021/03/20 08:46:38;;;;;;;4.73;0.90;;;;;;;3.08;59.25;99749.45;1743529;80;21573;-62
2021/03/20 08:49:55;;;;;;;2.97;1.40;;;;;;;3.13;58.50;99756.91;1746404;80;21594;-65
2021/03/20 08:52:49;;;;;;;4.07;1.00;;;;;;;3.15;57.94;99760.42;1747355;80;21178;-64
2021/03/20 08:55:57;;;;;;;2.30;1.13;;;;;;;3.22;57.77;99758.08;1743305;80;21433;-62
2021/03/20 08:58:44;;;;;;;2.13;0.77;;;;;;;3.24;56.67;99758.89;1742857;80;21289;-62
2021/03/20 09:01:35;;;;;;;2.80;0.70;;;;;;;3.26;54.78;99759.75;1745454;80;21199;-63
2021/03/20 09:04:07;;;;;;;0.93;0.70;;;;;;;3.28;54.82;99748.19;1725958;81;21214;-61
2021/03/20 09:06:40;;;;;;;1.30;0.80;;;;;;;3.35;54.16;99761.79;1730282;81;20994;-65
2021/03/20 09:09:16;;;;;;;1.83;0.70;;;;;;;3.35;52.47;99761.79;1729317;81;21383;-64
2021/03/20 09:12:09;;;;;;;1.90;0.80;;;;;;;3.34;52.90;99760.03;1870097;75;26744;-61
2021/03/20 09:14:43;;;;;;;1.77;0.80;;;;;;;3.31;51.81;99759.23;1837437;76;20948;-63
2021/03/20 09:17:29;;;;;;;1.52;0.70;;;;;;;3.31;51.70;99754.80;1841583;76;22732;-64
2021/03/20 09:20:21;;;;;;;2.03;0.60;;;;;;;3.30;52.48;99761.02;1838982;76;22402;-66
2021/03/20 09:22:48;;;;;;;1.30;0.70;;;;;;;3.40;53.03;99757.25;1814701;76;21313;-62
2021/03/20 09:25:36;;;;;;;1.00;0.70;;;;;;;3.57;53.05;99762.72;1833087;76;21458;-66
2021/03/20 09:28:15;;;;;;;1.40;0.80;;;;;;;3.65;52.69;99749.69;1840162;76;21462;-64
2021/03/20 09:30:46;;;;;;;3.43;0.90;;;;;;;3.76;52.33;99759.64;1843278;76;21421;-63
2021/03/20 09:33:32;;;;;;;2.80;0.70;;;;;;;3.85;51.95;99755.91;1799457;78;20989;-63
2021/03/20 09:36:34;;;;;;;2.50;0.90;;;;;;;3.87;50.38;99758.09;1802636;78;21114;-64
2021/03/20 09:39:03;;;;;;;0.90;0.70;;;;;;;3.77;50.72;99759.19;1752206;79;21417;-63
2021/03/20 09:41:32;;;;;;;0.80;0.60;;;;;;;3.73;50.71;99754.40;1800389;78;21090;-65
2021/03/20 09:44:09;;;;;;;0.80;0.50;;;;;;;3.76;50.66;99748.11;1784001;78;21360;-64
2021/03/20 09:46:46;;;;;;;1.20;0.60;;;;;;;3.87;51.40;99754.55;1782001;79;21156;-63
2021/03/20 09:49:24;;;;;;;2.20;0.60;;;;;;;3.97;50.21;99752.12;1741266;80;21187;-64
2021/03/20 09:54:42;;;;;;;1.03;0.50;;;;;;;4.09;49.18;99747.83;1819680;76;26708;-64
2021/03/20 09:57:25;;;;;;;1.27;0.50;;;;;;;4.02;47.80;99756.42;1789525;77;21175;-64
2021/03/20 09:59:48;;;;;;;1.17;0.53;;;;;;;3.98;47.61;99753.42;1791860;77;21258;-65
2021/03/20 10:02:24;;;;;;;1.00;0.60;;;;;;;4.01;48.26;99747.13;1786908;77;21475;-64
2021/03/20 10:04:59;;;;;;;0.90;0.60;;;;;;;4.12;47.83;99753.11;1789969;77;21167;-63
2021/03/20 10:07:33;;;;;;;0.63;0.50;;;;;;;4.21;48.07;99750.23;1793248;77;21400;-63
2021/03/20 10:10:16;;;;;;;1.00;0.65;;;;;;;4.34;47.72;99745.03;1793964;77;21147;-64
2021/03/20 10:12:52;;;;;;;2.80;0.67;;;;;;;4.44;47.93;99747.91;1795084;77;21494;-64
2021/03/20 10:15:32;;;;;;;2.07;0.60;;;;;;;4.51;47.49;99752.64;1793375;77;21095;-62
2021/03/20 10:18:14;;;;;;;1.77;0.80;;;;;;;4.56;46.86;99749.42;1774867;77;21168;-63
2021/03/20 10:20:56;;;;;;;1.00;0.70;;;;;;;4.62;47.02;99751.94;1791591;77;21706;-63
2021/03/20 10:23:47;;;;;;;0.87;0.60;;;;;;;4.68;46.66;99750.93;1798534;77;21399;-63
2021/03/20 10:26:20;;;;;;;1.10;0.60;;;;;;;4.69;46.32;99745.98;1792098;77;21431;-64
2021/03/20 10:28:55;;;;;;;1.13;0.70;;;;;;;4.77;46.73;99738.22;1792031;77;21163;-63
2021/03/20 10:31:22;;;;;;;1.00;0.70;;;;;;;4.85;46.31;99744.69;1791270;77;21147;-62
2021/03/20 10:33:52;;;;;;;0.80;0.57;;;;;;;4.85;45.08;99740.23;1794164;77;21103;-64
2021/03/20 10:36:28;;;;;;;1.17;0.60;;;;;;;4.77;45.31;99738.22;1787353;77;21170;-63
2021/03/20 10:38:57;;;;;;;0.97;0.60;;;;;;;4.66;45.29;99742.09;1786103;77;22576;-64
2021/03/20 10:41:33;;;;;;;0.63;0.50;;;;;;;4.59;46.19;99740.03;1786986;77;21173;-63
2021/03/20 10:44:20;;;;;;;1.20;0.60;;;;;;;4.64;46.75;99743.91;1770361;78;21586;-64
2021/03/20 10:46:49;;;;;;;0.80;0.60;;;;;;;4.74;47.26;99740.11;1769295;78;21249;-63
2021/03/20 10:49:23;;;;;;;1.60;0.50;;;;;;;4.86;47.98;99735.77;1767844;78;21199;-63
2021/03/20 10:51:53;;;;;;;0.70;0.50;;;;;;;5.02;47.94;99735.80;1767065;78;21196;-61
2021/03/20 10:54:33;;;;;;;0.90;0.60;;;;;;;5.16;46.33;99735.45;1781734;78;21161;-63
2021/03/20 10:57:05;;;;;;;1.37;0.57;;;;;;;5.18;44.80;99726.50;1791403;78;21420;-62
2021/03/20 10:59:40;;;;;;;1.23;0.70;;;;;;;5.12;44.44;99731.98;1784972;78;21563;-60
2021/03/20 11:02:21;;;;;;;;;;;;;;;5.06;44.83;99727.27;1788223;78;21181;-62
2021/03/20 11:04:49;;;;;;;1.10;0.60;;;;;;;5.03;45.60;99728.22;1786488;78;21198;-62
2021/03/20 11:07:24;;;;;;;1.87;0.60;;;;;;;4.99;45.49;99727.90;1757123;79;21481;-62
2021/03/20 11:10:08;;;;;;;1.10;0.70;;;;;;;4.90;45.83;99730.80;1787839;78;21197;-61
2021/03/20 11:12:35;;;;;;;0.80;0.70;;;;;;;4.83;45.81;99728.75;1786604;78;21639;-62
2021/03/20 11:15:05;;;;;;;0.90;0.60;;;;;;;4.79;46.48;99732.39;1781325;78;21134;-60
2021/03/20 11:17:33;;;;;;;2.90;0.70;;;;;;;4.78;46.20;99735.09;1785572;78;21140;-61
2021/03/20 11:20:23;;;;;;;0.70;0.60;;;;;;;4.77;46.60;99736.88;1785617;78;21158;-65
2021/03/20 11:22:48;;;;;;;1.03;0.50;;;;;;;4.79;46.80;99739.52;1787642;78;22061;-63
2021/03/20 11:25:40;;;;;;;0.77;0.57;;;;;;;4.74;47.07;99743.65;1786167;78;21150;-62
2021/03/20 11:28:14;;;;;;;0.93;0.70;;;;;;;4.60;47.54;99744.88;1786329;78;21752;-62
2021/03/20 11:30:45;;;;;;;7.00;0.68;;;;;;;4.51;47.42;99740.19;1784719;78;21251;-62
2021/03/20 11:33:17;;;;;;;2.47;0.73;;;;;;;4.44;47.90;99751.91;1782640;78;21201;-65
2021/03/20 11:35:49;;;;;;;1.43;0.70;;;;;;;4.39;48.45;99747.16;1785715;78;22355;-63
2021/03/20 11:38:18;;;;;;;1.20;0.70;;;;;;;4.35;49.44;99748.13;1789969;78;21106;-63
2021/03/20 11:40:48;;;;;;;2.67;0.67;;;;;;;4.29;49.95;99748.28;1786460;78;21194;-64
2021/03/20 11:43:23;;;;;;;0.90;0.60;;;;;;;4.27;50.47;99743.88;1787546;78;21178;-63
2021/03/20 11:45:52;;;;;;;;;;;;;;;4.32;50.81;99746.01;1788364;78;21113;-64
2021/03/20 11:48:39;;;;;;;2.53;0.53;;;;;;;4.37;50.99;99746.31;1787311;78;20313;-63
2021/03/20 11:51:16;;;;;;;0.70;0.50;;;;;;;4.42;51.03;99749.73;1783810;78;21217;-63
2021/03/20 11:53:48;;;;;;;0.73;0.60;;;;;;;4.48;50.67;99743.40;1748825;79;21191;-64
2021/03/20 11:56:19;;;;;;;0.80;0.50;;;;;;;4.50;50.39;99745.12;1770293;78;21569;-63
2021/03/20 11:58:55;;;;;;;1.83;0.83;;;;;;;4.53;50.22;99742.82;1769604;78;21506;-63
2021/03/20 12:01:33;;;;;;;2.30;0.80;;;;;;;4.55;50.48;99734.34;1773288;78;20941;-63
2021/03/20 12:04:12;;;;;;;1.27;0.70;;;;;;;4.56;50.11;99736.97;1760934;78;21079;-63
2021/03/20 12:06:40;;;;;;;1.40;0.70;;;;;;;4.50;50.58;99743.80;1771239;78;22287;-64
2021/03/20 12:09:32;;;;;;;1.43;0.80;;;;;;;4.47;50.99;99741.19;1770595;78;21203;-64
2021/03/20 12:12:00;;;;;;;1.13;0.60;;;;;;;4.47;51.42;99740.31;1771549;78;21110;-64
2021/03/20 12:14:47;;;;;;;1.27;0.80;;;;;;;4.47;51.94;99738.98;1772808;78;21119;-64
2021/03/20 12:17:23;;;;;;;1.27;0.70;;;;;;;4.49;52.29;99739.38;1773925;78;21095;-63
2021/03/20 12:20:04;;;;;;;1.30;0.70;;;;;;;4.52;52.39;99736.61;1768911;78;21597;-64
2021/03/20 12:25:38;;;;;;;0.87;0.70;;;;;;;4.52;52.68;99725.95;1823815;75;26650;-64
2021/03/20 12:28:42;;;;;;;0.90;0.70;;;;;;;4.47;52.59;99730.53;1776128;78;21174;-63
2021/03/20 12:31:20;;;;;;;0.80;0.50;;;;;;;4.47;52.88;99729.66;1783931;77;21464;-63
2021/03/20 12:33:59;;;;;;;1.10;0.70;;;;;;;4.47;52.02;99720.32;1725227;81;21027;-64
2021/03/20 12:36:47;;;;;;;1.00;0.80;;;;;;;4.45;51.23;99729.68;1723107;81;20956;-63
2021/03/20 12:39:17;;;;;;;1.77;0.60;;;;;;;4.43;51.14;99721.29;1778654;77;20977;-64